createdAt,value
2023-01-22T00:01:20.406Z,11.00
2023-01-22T00:03:49.558Z,12.25
2023-01-22T00:06:17.069Z,19.20
2023-01-22T00:08:44.303Z,19.60
2023-01-22T00:11:12.933Z,13.63
2023-01-22T00:13:41.228Z,13.93
2023-01-22T00:16:08.907Z,12.95
2023-01-22T00:18:36.334Z,11.55
2023-01-22T00:21:03.768Z,9.88
2023-01-22T00:23:31.185Z,13.18
2023-01-22T00:26:17.634Z,10.65
2023-01-22T00:31:14.644Z,11.05
2023-01-22T00:33:42.403Z,9.02
2023-01-22T00:36:13.494Z,10.85
2023-01-22T00:38:41.393Z,10.93
2023-01-22T00:41:09.926Z,13.90
2023-01-22T00:43:41.120Z,10.48
2023-01-22T00:46:10.192Z,10.82
2023-01-22T00:48:37.759Z,10.50
2023-01-22T00:51:06.086Z,12.20
2023-01-22T00:53:33.520Z,8.27
2023-01-22T00:56:02.154Z,10.00
2023-01-22T00:58:30.241Z,9.68
2023-01-22T01:00:57.919Z,8.98
2023-01-22T01:03:28.082Z,13.10
2023-01-22T01:06:00.471Z,9.00
2023-01-22T01:08:30.020Z,10.45
2023-01-22T01:10:59.563Z,9.07
2023-01-22T01:13:28.862Z,9.93
2023-01-22T01:16:05.662Z,11.15
2023-01-22T01:21:01.588Z,9.82
2023-01-22T01:23:29.354Z,10.98
2023-01-22T01:25:56.819Z,10.40
2023-01-22T01:28:24.926Z,9.18
2023-01-22T01:30:52.336Z,10.18
2023-01-22T01:33:19.712Z,10.48
2023-01-22T01:35:47.081Z,9.30
2023-01-22T01:38:14.334Z,8.68
2023-01-22T01:40:45.295Z,9.02
2023-01-22T01:43:17.424Z,9.93
2023-01-22T01:45:44.857Z,9.27
2023-01-22T01:48:36.581Z,9.90
2023-01-22T01:51:09.548Z,10.68
2023-01-22T01:53:39.440Z,9.05
2023-01-22T01:56:31.247Z,9.93
2023-01-22T01:59:23.820Z,10.35
2023-01-22T02:01:55.009Z,7.32
2023-01-22T02:04:24.061Z,8.50
2023-01-22T02:06:51.503Z,8.70
2023-01-22T02:09:18.955Z,8.43
2023-01-22T02:11:46.343Z,11.18
2023-01-22T02:14:33.277Z,7.47
2023-01-22T02:17:07.635Z,9.32
2023-01-22T02:19:35.233Z,7.55
2023-01-22T02:22:02.565Z,8.15
2023-01-22T02:24:31.228Z,9.15
2023-01-22T02:26:58.621Z,8.13
2023-01-22T02:29:27.103Z,9.18
2023-01-22T02:31:54.537Z,8.27
2023-01-22T02:34:24.971Z,7.03
2023-01-22T02:36:54.515Z,8.13
2023-01-22T02:39:23.545Z,7.68
2023-01-22T02:41:51.614Z,6.40
2023-01-22T02:44:19.217Z,7.82
2023-01-22T02:46:46.563Z,6.47
2023-01-22T02:49:14.141Z,5.40
2023-01-22T02:51:41.536Z,7.20
2023-01-22T02:54:08.882Z,7.35
2023-01-22T02:56:36.559Z,6.40
2023-01-22T02:59:04.617Z,6.22
2023-01-22T03:01:36.297Z,7.22
2023-01-22T03:04:10.816Z,5.97
2023-01-22T03:06:44.197Z,7.28
2023-01-22T03:09:13.813Z,6.82
2023-01-22T03:11:43.906Z,5.60
2023-01-22T03:14:33.835Z,5.68
2023-01-22T03:17:20.370Z,5.63
2023-01-22T03:20:06.407Z,8.18
2023-01-22T03:22:33.889Z,5.47
2023-01-22T03:25:01.487Z,13.85
2023-01-22T03:27:31.264Z,6.55
2023-01-22T03:29:59.214Z,5.43
2023-01-22T03:32:26.886Z,5.65
2023-01-22T03:34:55.447Z,6.88
2023-01-22T03:37:24.248Z,5.88
2023-01-22T03:39:54.556Z,5.68
2023-01-22T03:42:30.527Z,7.00
2023-01-22T03:44:57.948Z,6.15
2023-01-22T03:47:25.955Z,4.38
2023-01-22T03:49:53.185Z,4.63
2023-01-22T03:52:20.895Z,4.68
2023-01-22T03:54:48.249Z,7.30
2023-01-22T03:57:15.599Z,4.00
2023-01-22T03:59:43.322Z,7.00
2023-01-22T04:02:10.647Z,4.30
2023-01-22T04:04:50.486Z,8.80
2023-01-22T04:07:17.824Z,6.47
2023-01-22T04:09:45.097Z,4.97
2023-01-22T04:12:13.117Z,4.38
2023-01-22T04:14:40.404Z,5.97
2023-01-22T04:17:08.714Z,4.75
2023-01-22T04:19:50.726Z,6.60
2023-01-22T04:22:18.003Z,4.63
2023-01-22T04:24:46.800Z,5.55
2023-01-22T04:27:15.029Z,4.68
2023-01-22T04:29:42.467Z,3.80
2023-01-22T04:32:09.746Z,4.32
2023-01-22T04:35:04.433Z,5.57
2023-01-22T04:37:44.463Z,5.50
2023-01-22T04:40:12.223Z,3.92
2023-01-22T04:42:39.549Z,3.40
2023-01-22T04:45:07.761Z,4.28
2023-01-22T04:47:35.202Z,3.42
2023-01-22T04:50:02.621Z,6.25
2023-01-22T04:52:30.275Z,3.75
2023-01-22T04:54:57.695Z,4.35
2023-01-22T04:57:29.899Z,6.78
2023-01-22T04:59:57.774Z,3.55
2023-01-22T05:02:25.156Z,3.95
2023-01-22T05:04:53.614Z,4.28
2023-01-22T05:07:20.910Z,3.55
2023-01-22T05:09:48.152Z,5.00
2023-01-22T05:12:16.497Z,3.55
2023-01-22T05:14:45.470Z,4.95
2023-01-22T05:17:12.836Z,3.42
2023-01-22T05:19:40.169Z,3.03
2023-01-22T05:22:12.667Z,2.53
2023-01-22T05:24:39.978Z,4.00
2023-01-22T05:27:07.337Z,1.70
2023-01-22T05:29:42.039Z,4.43
2023-01-22T05:32:32.750Z,4.20
2023-01-22T05:35:01.869Z,3.42
2023-01-22T05:37:30.668Z,5.20
2023-01-22T05:39:58.218Z,2.85
2023-01-22T05:42:25.519Z,4.05
2023-01-22T05:44:52.855Z,6.32
2023-01-22T05:47:23.696Z,6.25
2023-01-22T05:50:29.578Z,5.13
2023-01-22T05:53:04.644Z,6.43
2023-01-22T05:55:32.669Z,5.60
2023-01-22T05:58:00.254Z,4.30
2023-01-22T06:00:28.818Z,3.40
2023-01-22T06:03:00.912Z,6.80
2023-01-22T06:05:31.304Z,2.95
2023-01-22T06:08:04.181Z,3.35
2023-01-22T06:10:39.306Z,2.97
2023-01-22T06:13:06.737Z,3.05
2023-01-22T06:15:34.237Z,3.58
2023-01-22T06:18:14.711Z,2.20
2023-01-22T06:20:42.056Z,5.40
2023-01-22T06:23:09.266Z,3.35
2023-01-22T06:25:37.210Z,2.30
2023-01-22T06:28:16.545Z,3.63
2023-01-22T06:30:45.482Z,2.38
2023-01-22T06:33:13.215Z,2.85
2023-01-22T06:35:40.578Z,5.43
2023-01-22T06:38:08.337Z,3.83
2023-01-22T06:40:36.314Z,4.68
2023-01-22T06:43:06.577Z,3.33
2023-01-22T06:45:34.381Z,3.63
2023-01-22T06:48:06.055Z,4.20
2023-01-22T06:50:33.342Z,6.05
2023-01-22T06:53:01.185Z,2.55
2023-01-22T06:55:28.661Z,3.25
2023-01-22T06:57:57.199Z,4.82
2023-01-22T07:00:24.430Z,2.63
2023-01-22T07:02:52.095Z,2.88
2023-01-22T07:05:23.165Z,2.90
2023-01-22T07:07:54.572Z,2.47
2023-01-22T07:10:22.455Z,4.03
2023-01-22T07:12:55.352Z,5.18
2023-01-22T07:15:22.707Z,4.47
2023-01-22T07:17:54.455Z,3.45
2023-01-22T07:20:23.363Z,4.18
2023-01-22T07:22:51.537Z,2.30
2023-01-22T07:25:19.503Z,3.53
2023-01-22T07:27:46.859Z,3.90
2023-01-22T07:30:14.692Z,4.10
2023-01-22T07:32:42.196Z,4.47
2023-01-22T07:35:09.627Z,4.25
2023-01-22T07:37:37.086Z,4.15
2023-01-22T07:40:05.922Z,55.10
2023-01-22T07:42:33.328Z,4.65
2023-01-22T07:45:00.692Z,5.47
2023-01-22T07:47:27.986Z,6.35
2023-01-22T07:49:58.195Z,7.13
2023-01-22T07:52:28.473Z,4.85
2023-01-22T07:55:00.909Z,6.88
2023-01-22T07:57:31.226Z,3.80
2023-01-22T08:00:00.932Z,5.03
2023-01-22T08:02:28.356Z,6.72
2023-01-22T08:04:55.738Z,5.40
2023-01-22T08:07:23.468Z,4.50
2023-01-22T08:09:50.780Z,7.88
2023-01-22T08:12:18.045Z,4.28
2023-01-22T08:14:45.638Z,5.82
2023-01-22T08:17:12.994Z,4.07
2023-01-22T08:19:40.339Z,4.88
2023-01-22T08:22:07.991Z,6.35
2023-01-22T08:24:35.287Z,4.63
2023-01-22T08:27:03.360Z,4.07
2023-01-22T08:29:30.665Z,4.55
2023-01-22T08:31:58.267Z,5.25
2023-01-22T08:34:26.769Z,4.20
2023-01-22T08:36:55.796Z,4.22
2023-01-22T08:39:23.190Z,4.65
2023-01-22T08:54:08.270Z,4.30
2023-01-22T09:49:14.414Z,5.03
2023-01-22T09:51:45.284Z,3.80
2023-01-22T09:54:15.559Z,3.33
2023-01-22T09:56:46.079Z,7.25
2023-01-22T09:59:21.444Z,3.08
2023-01-22T10:02:04.210Z,3.65
2023-01-22T10:04:40.490Z,7.93
2023-01-22T10:07:25.774Z,4.75
2023-01-22T10:09:56.590Z,9.10
2023-01-22T10:12:29.247Z,6.75
2023-01-22T10:14:58.010Z,10.95
2023-01-22T10:17:32.797Z,6.72
2023-01-22T10:20:05.249Z,5.97
2023-01-22T10:22:32.619Z,7.68
2023-01-22T10:24:59.898Z,9.30
2023-01-22T10:27:39.620Z,4.63
2023-01-22T10:30:25.559Z,7.30
2023-01-22T14:22:38.803Z,4.40
2023-01-22T14:25:07.058Z,4.65
2023-01-22T14:27:47.353Z,4.53
2023-01-22T14:30:18.077Z,5.05
2023-01-22T14:32:46.158Z,6.57
2023-01-22T14:35:19.817Z,5.15
2023-01-22T14:37:47.443Z,4.88
2023-01-22T14:40:16.669Z,4.35
2023-01-22T14:42:44.146Z,5.15
2023-01-22T14:45:11.879Z,4.38
2023-01-22T14:47:39.215Z,3.78
2023-01-22T14:50:07.857Z,4.53
2023-01-22T14:52:38.228Z,4.90
2023-01-22T14:55:05.942Z,4.07
2023-01-22T14:57:33.197Z,5.43
2023-01-22T15:00:02.376Z,4.95
2023-01-22T15:02:30.168Z,5.25
2023-01-22T15:04:57.746Z,4.40
2023-01-22T15:07:25.119Z,4.63
2023-01-22T15:09:52.366Z,6.20
2023-01-22T15:12:19.676Z,7.30
2023-01-22T15:14:46.959Z,4.85
2023-01-22T15:17:14.266Z,5.45
2023-01-22T15:19:41.971Z,6.88
2023-01-22T15:22:10.111Z,5.38
2023-01-22T15:24:39.331Z,4.72
2023-01-22T15:27:07.585Z,7.95
2023-01-22T15:29:34.914Z,5.30
2023-01-22T15:32:02.712Z,9.40
2023-01-22T15:34:29.981Z,5.20
2023-01-22T15:36:57.382Z,4.57
2023-01-22T15:39:24.643Z,4.53
2023-01-22T15:41:51.986Z,4.50
2023-01-22T15:44:19.220Z,3.97
2023-01-22T15:46:47.208Z,4.72
2023-01-22T15:49:15.133Z,5.00
2023-01-22T15:51:42.508Z,3.92
2023-01-22T15:54:15.131Z,3.85
2023-01-22T15:56:42.634Z,3.63
2023-01-22T15:59:11.268Z,5.28
2023-01-22T16:01:38.905Z,4.65
2023-01-22T16:04:06.488Z,4.43
2023-01-22T16:06:34.633Z,3.88
2023-01-22T16:09:04.310Z,5.07
2023-01-22T16:11:32.871Z,3.20
2023-01-22T16:14:00.574Z,4.57
2023-01-22T16:16:34.881Z,3.25
2023-01-22T16:19:04.621Z,5.05
2023-01-22T16:21:31.904Z,5.35
2023-01-22T16:24:01.165Z,4.40
2023-01-22T16:26:31.534Z,3.90
2023-01-22T16:29:01.029Z,4.72
2023-01-22T16:31:30.968Z,5.65
2023-01-22T16:34:11.625Z,7.20
2023-01-22T16:36:39.716Z,5.28
2023-01-22T16:39:07.299Z,5.30
2023-01-22T16:41:36.309Z,6.60
2023-01-22T16:44:12.165Z,5.13
2023-01-22T16:46:42.114Z,6.00
2023-01-22T16:49:14.430Z,5.15
2023-01-22T16:51:50.354Z,4.47
2023-01-22T16:54:27.876Z,6.57
2023-01-22T16:57:00.878Z,6.25
2023-01-22T16:59:28.317Z,7.00
2023-01-22T17:01:57.083Z,11.30
2023-01-22T17:04:24.846Z,5.57
2023-01-22T17:06:57.119Z,8.52
2023-01-22T17:09:28.779Z,9.10
2023-01-22T17:11:58.874Z,6.75
2023-01-22T17:14:29.586Z,9.30
2023-01-22T17:16:58.393Z,5.05
2023-01-22T17:19:25.773Z,6.97
2023-01-22T17:21:56.760Z,6.32
2023-01-22T17:24:24.783Z,6.47
2023-01-22T17:26:53.152Z,7.03
2023-01-22T17:29:21.478Z,7.32
2023-01-22T17:31:49.072Z,8.48
2023-01-22T17:34:16.802Z,6.13
2023-01-22T17:36:45.523Z,7.13
2023-01-22T17:39:16.647Z,7.47
2023-01-22T17:41:44.724Z,6.53
2023-01-22T17:44:13.223Z,6.80
2023-01-22T17:46:40.591Z,6.80
2023-01-22T17:49:08.076Z,6.28
2023-01-22T17:51:35.784Z,7.10
2023-01-22T17:54:04.166Z,6.47
2023-01-22T17:56:34.097Z,4.97
2023-01-22T17:59:04.405Z,7.05
2023-01-22T18:01:33.660Z,5.05
2023-01-22T18:04:06.252Z,6.00
2023-01-22T18:06:35.202Z,8.30
2023-01-22T18:09:04.524Z,7.28
2023-01-22T18:11:33.207Z,4.97
2023-01-22T18:14:03.357Z,6.05
2023-01-22T18:16:32.954Z,8.73
2023-01-22T18:19:03.380Z,4.93
2023-01-22T18:21:31.210Z,5.20
2023-01-22T18:24:00.739Z,5.10
2023-01-22T18:26:28.553Z,5.57
2023-01-22T18:28:58.362Z,9.40
2023-01-22T18:31:27.091Z,7.90
2023-01-22T18:33:57.154Z,4.88
2023-01-22T18:36:26.666Z,6.53
2023-01-22T18:38:54.646Z,6.15
2023-01-22T18:41:24.199Z,8.20
2023-01-22T18:43:57.400Z,11.63
2023-01-22T18:46:28.268Z,10.10
2023-01-22T18:49:00.238Z,12.40
2023-01-22T18:51:28.647Z,14.02
2023-01-22T18:53:57.142Z,11.82
2023-01-22T18:56:27.169Z,16.35
2023-01-22T18:58:55.724Z,23.52
2023-01-22T19:11:25.489Z,13.15
2023-01-22T19:13:55.272Z,13.38
2023-01-22T19:16:23.647Z,14.80
2023-01-22T19:19:03.908Z,14.32
2023-01-22T19:21:31.581Z,13.60
2023-01-22T19:24:01.390Z,13.00
2023-01-22T19:26:33.830Z,19.58
2023-01-22T19:29:11.071Z,15.82
2023-01-22T19:31:46.351Z,16.02
2023-01-22T19:34:23.325Z,15.55
2023-01-22T19:39:20.224Z,12.20
2023-01-22T19:41:47.623Z,9.77
2023-01-22T19:44:15.267Z,13.88
2023-01-22T19:46:42.850Z,15.23
2023-01-22T19:49:12.941Z,11.57
2023-01-22T19:51:40.422Z,13.57
2023-01-22T19:54:08.491Z,12.70
2023-01-22T19:56:37.644Z,13.15
2023-01-22T19:59:07.588Z,14.55
2023-01-22T20:01:36.770Z,13.75
2023-01-22T20:04:08.779Z,12.98
2023-01-22T20:06:36.317Z,12.00
2023-01-22T20:09:04.507Z,17.10
2023-01-22T20:11:31.951Z,16.65
2023-01-22T20:13:59.840Z,14.90
2023-01-22T20:16:29.446Z,17.58
2023-01-22T20:18:57.847Z,15.48
2023-01-22T20:21:26.995Z,13.55
2023-01-22T20:23:54.618Z,9.93
2023-01-22T20:26:23.037Z,12.15
2023-01-22T20:28:51.262Z,12.65
2023-01-22T20:31:23.412Z,11.13
2023-01-22T20:33:56.052Z,13.05
2023-01-22T20:48:49.983Z,11.48
2023-01-22T20:51:25.034Z,13.27
2023-01-22T20:53:54.386Z,10.30
2023-01-22T20:56:28.971Z,10.57
2023-01-22T20:59:01.787Z,11.07
2023-01-22T21:06:30.456Z,12.85
2023-01-22T21:09:00.871Z,13.20
2023-01-22T21:21:30.053Z,10.70
2023-01-22T21:23:58.329Z,10.68
2023-01-22T21:26:29.047Z,9.65
2023-01-22T21:29:02.878Z,10.10
2023-01-22T21:31:32.935Z,9.88
2023-01-22T21:34:04.823Z,14.80
2023-01-22T21:36:40.768Z,9.38
2023-01-22T21:39:14.707Z,11.50
2023-01-22T21:41:44.292Z,11.43
2023-01-22T21:44:35.477Z,12.75
2023-01-22T21:47:05.410Z,12.70
2023-01-22T21:49:37.148Z,14.38
2023-01-22T21:52:06.249Z,12.75
2023-01-22T21:54:41.254Z,12.98
2023-01-22T21:57:13.485Z,15.63
2023-01-22T21:59:41.287Z,14.98
2023-01-22T22:02:13.737Z,14.45
2023-01-22T22:04:42.129Z,11.43
2023-01-22T22:07:10.714Z,12.02
2023-01-22T22:09:38.613Z,15.63
2023-01-22T22:12:06.795Z,19.75
2023-01-22T22:14:34.315Z,17.83
2023-01-22T22:17:02.821Z,17.65
2023-01-22T22:19:30.194Z,16.08
2023-01-22T22:21:58.520Z,16.08
2023-01-22T22:24:25.753Z,13.10
2023-01-22T22:26:54.054Z,16.05
2023-01-22T22:29:21.314Z,19.73
2023-01-22T22:31:48.731Z,21.50
2023-01-22T22:34:16.021Z,18.55
2023-01-22T22:36:43.405Z,15.77
2023-01-22T22:39:10.993Z,17.65
2023-01-22T22:41:39.275Z,16.05
2023-01-22T22:44:07.476Z,16.25
2023-01-22T22:46:38.391Z,17.45
2023-01-22T22:49:06.120Z,16.85
2023-01-22T22:51:40.960Z,15.68
2023-01-22T22:54:16.675Z,16.27
2023-01-22T22:56:48.715Z,16.13
2023-01-22T22:59:18.548Z,16.77
2023-01-22T23:01:45.934Z,13.50
2023-01-22T23:04:13.498Z,11.85
2023-01-22T23:06:43.920Z,12.45
2023-01-22T23:09:19.782Z,15.85
2023-01-22T23:11:51.466Z,12.57
2023-01-22T23:14:19.322Z,15.23
2023-01-22T23:16:47.666Z,14.75
2023-01-22T23:19:24.506Z,11.23
2023-01-22T23:21:56.382Z,12.25
2023-01-22T23:24:24.280Z,11.13
2023-01-22T23:26:52.129Z,9.80
2023-01-22T23:29:22.108Z,11.13
2023-01-22T23:31:50.228Z,12.60
2023-01-22T23:34:20.220Z,13.05
2023-01-22T23:36:48.499Z,10.48
2023-01-22T23:39:18.197Z,10.57
2023-01-22T23:41:46.221Z,10.75
2023-01-22T23:44:13.996Z,10.50
2023-01-22T23:46:41.946Z,10.63
2023-01-22T23:49:09.788Z,11.60
2023-01-22T23:51:41.070Z,8.77
2023-01-22T23:54:09.067Z,10.38
2023-01-22T23:56:36.819Z,11.80
2023-01-22T23:59:04.230Z,12.55
